Time;durP1;ratioP1;P1;durP2;ratioP2;P2;SDS_P1;SDS_P2;PMS_P1;PMS_P2;Temp;Humidity;BMP_temperature;BMP_pressure;BME280_temperature;BME280_humidity;BME280_pressure;Samples;Min_cycle;Max_cycle;Signal;HPM_P1;HPM_P2
2023/07/11 00:00:07;;;;;;;1.05;1.05;;;;;;;26.55;33.03;97752.00;4954711;28;20224;-28
2023/07/11 00:02:34;;;;;;;1.20;1.10;;;;;;;26.55;33.03;97743.38;4939216;28;20228;-28
2023/07/11 00:05:00;;;;;;;1.20;1.20;;;;;;;26.56;33.24;97750.28;4960957;28;20212;-28
2023/07/11 00:07:27;;;;;;;1.25;1.15;;;;;;;26.57;32.88;97747.75;4956359;28;20235;-28
2023/07/11 00:09:53;;;;;;;1.52;1.42;;;;;;;26.57;33.09;97750.31;4955917;28;20228;-28
2023/07/11 00:12:20;;;;;;;1.35;1.25;;;;;;;26.58;33.01;97748.59;4956128;28;20263;-28
2023/07/11 00:14:47;;;;;;;1.10;1.10;;;;;;;26.58;33.08;97754.63;4955773;28;20204;-29
2023/07/11 00:17:13;;;;;;;1.27;1.17;;;;;;;26.59;33.04;97747.75;4956735;28;20207;-28
2023/07/11 00:19:52;;;;;;;1.40;1.30;;;;;;;26.59;33.01;97751.19;4960939;28;20271;-28
2023/07/11 00:22:18;;;;;;;1.10;1.10;;;;;;;26.60;33.04;97744.31;4967773;28;20234;-28
2023/07/11 00:24:46;;;;;;;1.33;1.23;;;;;;;26.59;33.00;97743.44;4960849;28;20200;-28
2023/07/11 00:27:14;;;;;;;1.50;1.40;;;;;;;26.60;33.02;97745.19;4956081;28;20699;-28
2023/07/11 00:29:40;;;;;;;1.38;1.27;;;;;;;26.61;33.02;97741.75;4953825;28;20722;-28
2023/07/11 00:32:07;;;;;;;1.30;1.20;;;;;;;26.61;32.79;97741.75;4957972;28;20266;-28
2023/07/11 00:34:34;;;;;;;1.30;1.20;;;;;;;26.62;32.82;97743.53;4963247;28;20617;-28
2023/07/11 00:37:01;;;;;;;1.08;1.05;;;;;;;26.61;32.91;97740.88;4949424;28;20260;-28
2023/07/11 00:39:28;;;;;;;1.40;1.30;;;;;;;26.61;32.85;97740.88;4938815;28;20465;-28
2023/07/11 00:41:55;;;;;;;1.37;1.27;;;;;;;26.63;32.70;97741.81;4961248;28;20207;-28
2023/07/11 00:44:23;;;;;;;1.00;1.00;;;;;;;26.61;32.78;97738.31;4965054;28;20196;-29
2023/07/11 00:46:50;;;;;;;1.30;1.20;;;;;;;26.61;32.77;97734.03;4946286;29;20235;-29
2023/07/11 00:49:18;;;;;;;1.13;1.13;;;;;;;26.61;32.74;97733.16;4955005;28;20220;-28
2023/07/11 00:51:49;;;;;;;1.40;1.30;;;;;;;26.60;32.71;97728.84;4922365;29;20197;-28
2023/07/11 00:54:17;;;;;;;1.40;1.30;;;;;;;26.60;32.86;97728.84;4953924;28;20196;-28
2023/07/11 00:56:45;;;;;;;1.50;1.40;;;;;;;26.62;32.62;97734.91;4958906;28;20436;-30
2023/07/11 00:59:12;;;;;;;1.25;1.15;;;;;;;26.62;32.51;97729.75;4954241;28;20259;-28
2023/07/11 01:01:39;;;;;;;1.20;1.20;;;;;;;26.60;32.71;97728.84;4940403;28;20674;-29
2023/07/11 01:04:08;;;;;;;1.10;1.10;;;;;;;26.63;32.66;97734.97;4963511;28;20207;-28
2023/07/11 01:06:35;;;;;;;1.40;1.30;;;;;;;26.63;32.82;97732.38;4955002;28;20207;-29
2023/07/11 01:09:04;;;;;;;1.00;1.00;;;;;;;26.65;32.70;97727.25;4953296;28;20251;-28
2023/07/11 01:11:31;;;;;;;1.20;1.20;;;;;;;26.64;32.84;97734.09;4951699;28;20208;-28
2023/07/11 01:13:58;;;;;;;1.30;1.20;;;;;;;26.65;32.61;97724.66;4954515;28;20196;-28
2023/07/11 01:16:25;;;;;;;1.17;1.13;;;;;;;26.66;32.61;97731.53;4954286;28;20207;-28
2023/07/11 01:18:51;;;;;;;1.37;1.27;;;;;;;26.65;32.66;97733.25;4953152;28;20256;-29
2023/07/11 01:21:18;;;;;;;1.30;1.20;;;;;;;26.66;32.81;97732.41;4954275;28;20200;-28
2023/07/11 01:23:45;;;;;;;1.33;1.23;;;;;;;26.38;32.80;97673.56;4947914;28;20222;-37
2023/07/11 01:26:14;;;;;;;1.50;1.40;;;;;;;26.67;32.67;97722.94;4948267;28;20210;-28
2023/07/11 01:28:40;;;;;;;1.10;1.10;;;;;;;26.67;32.52;97713.50;4958946;28;20216;-28
2023/07/11 01:31:07;;;;;;;1.20;1.10;;;;;;;26.69;32.57;97718.69;4941019;29;20211;-29
2023/07/11 01:33:34;;;;;;;1.23;1.13;;;;;;;26.67;32.49;97715.22;4956652;28;20647;-28
2023/07/11 01:36:02;;;;;;;1.40;1.30;;;;;;;26.68;32.53;97710.06;4961779;28;20204;-28
2023/07/11 01:38:29;;;;;;;1.30;1.20;;;;;;;26.69;32.58;97708.38;4966223;28;20266;-28
2023/07/11 01:40:55;;;;;;;1.40;1.30;;;;;;;26.69;32.68;97710.94;4959518;28;20255;-28
2023/07/11 01:43:22;;;;;;;1.30;1.20;;;;;;;26.69;32.36;97703.22;4954979;28;20235;-28
2023/07/11 01:45:48;;;;;;;1.35;1.20;;;;;;;26.70;32.51;97704.94;4951602;28;20200;-29
2023/07/11 01:48:15;;;;;;;1.30;1.20;;;;;;;26.46;32.59;97665.94;4967991;28;20247;-28
2023/07/11 01:50:42;;;;;;;1.15;1.15;;;;;;;26.69;32.55;97698.06;4945527;29;20672;-29
2023/07/11 01:53:08;;;;;;;1.30;1.20;;;;;;;26.70;32.50;97698.06;4952839;28;20287;-28
2023/07/11 01:55:35;;;;;;;1.10;1.10;;;;;;;26.71;32.44;97696.38;4958533;28;20256;-28
2023/07/11 01:58:01;;;;;;;1.30;1.20;;;;;;;26.71;32.49;97692.06;4962752;28;20254;-28
2023/07/11 02:00:28;;;;;;;1.30;1.20;;;;;;;26.71;32.55;97689.47;4967547;28;20220;-29
2023/07/11 02:02:55;;;;;;;1.23;1.13;;;;;;;26.72;32.38;97688.66;4953456;28;20258;-28
2023/07/11 02:05:21;;;;;;;1.52;1.30;;;;;;;26.70;32.43;97697.19;4967113;28;20734;-29
2023/07/11 02:07:48;;;;;;;1.20;1.10;;;;;;;26.73;32.29;97689.50;4941269;28;20196;-28
2023/07/11 02:10:15;;;;;;;1.30;1.20;;;;;;;26.73;32.33;97692.06;4959278;28;20220;-28
2023/07/11 02:12:42;;;;;;;1.38;1.27;;;;;;;26.74;32.33;97694.66;4966682;28;20667;-28
2023/07/11 02:15:08;;;;;;;1.00;1.00;;;;;;;26.74;32.41;97688.66;4965456;28;20199;-29
2023/07/11 02:17:35;;;;;;;1.20;1.20;;;;;;;26.74;32.31;97691.25;4963758;28;20208;-28
2023/07/11 02:20:02;;;;;;;1.30;1.20;;;;;;;26.75;32.42;97687.81;4958653;28;20285;-37
2023/07/11 02:22:29;;;;;;;1.40;1.30;;;;;;;26.74;32.34;97689.50;4961072;28;20808;-28
2023/07/11 02:24:56;;;;;;;1.30;1.20;;;;;;;26.74;32.47;97681.78;4961995;28;20666;-29
2023/07/11 02:27:22;;;;;;;1.10;1.10;;;;;;;26.76;32.37;97674.06;4957085;28;20239;-28
2023/07/11 02:29:49;;;;;;;1.10;1.10;;;;;;;26.75;32.29;97669.75;4968415;28;20238;-29
2023/07/11 02:32:16;;;;;;;1.20;1.10;;;;;;;26.76;32.29;97671.47;4962944;28;20668;-29
2023/07/11 02:34:42;;;;;;;1.60;1.50;;;;;;;26.76;32.26;97674.94;4952182;28;20200;-28
2023/07/11 02:37:09;;;;;;;1.00;1.00;;;;;;;26.76;32.17;97663.75;4959943;28;20267;-28
2023/07/11 02:39:35;;;;;;;1.17;1.10;;;;;;;26.76;32.16;97668.91;4957229;28;20307;-29
2023/07/11 02:42:04;;;;;;;1.30;1.20;;;;;;;26.77;32.28;97673.22;4948419;28;20204;-28
2023/07/11 02:44:30;;;;;;;1.10;1.10;;;;;;;26.77;32.40;97668.06;4959084;28;20628;-28
2023/07/11 02:46:57;;;;;;;1.00;1.00;;;;;;;26.78;32.21;97662.06;4952495;28;20734;-29
2023/07/11 02:49:23;;;;;;;1.50;1.40;;;;;;;26.77;32.31;97673.22;4954566;28;20612;-29
2023/07/11 02:51:50;;;;;;;1.35;1.25;;;;;;;26.78;32.16;97667.22;4955072;28;20231;-28
2023/07/11 02:54:16;;;;;;;1.30;1.20;;;;;;;26.79;32.21;97671.50;4952546;28;20208;-28
2023/07/11 02:56:43;;;;;;;1.30;1.20;;;;;;;26.79;32.23;97669.81;4956428;28;20196;-28
2023/07/11 02:59:09;;;;;;;1.27;1.17;;;;;;;26.79;32.27;97669.81;4957138;28;20287;-28
2023/07/11 03:01:36;;;;;;;1.08;1.08;;;;;;;26.80;32.14;97668.09;4953542;28;20210;-28
2023/07/11 03:04:03;;;;;;;1.20;1.10;;;;;;;26.80;32.30;97661.22;4959457;28;20203;-28
2023/07/11 03:06:30;;;;;;;1.27;1.20;;;;;;;26.80;32.11;97656.06;4955803;28;20201;-28
2023/07/11 03:08:56;;;;;;;1.10;1.10;;;;;;;26.80;32.21;97656.06;4952971;29;20354;-28
2023/07/11 03:11:23;;;;;;;1.35;1.25;;;;;;;26.82;32.13;97666.38;4953228;28;20204;-29
2023/07/11 03:13:49;;;;;;;1.20;1.10;;;;;;;26.77;32.02;97650.88;4961993;28;20549;-29
2023/07/11 03:16:16;;;;;;;1.40;1.30;;;;;;;26.83;31.97;97656.94;4942882;28;20223;-29
2023/07/11 03:18:42;;;;;;;1.30;1.20;;;;;;;26.83;32.00;97651.78;4936255;28;20687;-28
2023/07/11 03:21:09;;;;;;;1.20;1.15;;;;;;;26.82;32.08;97645.75;4949717;28;20212;-29
2023/07/11 03:23:36;;;;;;;1.40;1.30;;;;;;;26.82;32.84;97647.50;4954766;28;20204;-28
2023/07/11 03:26:02;;;;;;;1.20;1.20;;;;;;;26.79;33.25;97649.19;4956757;28;20258;-28
2023/07/11 03:28:29;;;;;;;1.40;1.30;;;;;;;26.77;33.55;97656.03;4954301;28;20204;-28
2023/07/11 03:30:56;;;;;;;1.35;1.25;;;;;;;26.72;33.88;97647.41;4952482;28;20630;-28
2023/07/11 03:33:22;;;;;;;1.35;1.25;;;;;;;26.72;33.99;97643.94;4958216;28;20204;-28
2023/07/11 03:35:50;;;;;;;1.55;1.45;;;;;;;26.63;34.34;97642.13;4954185;28;20201;-28
2023/07/11 03:38:17;;;;;;;1.45;1.35;;;;;;;26.65;34.17;97652.47;4956858;28;20275;-37
2023/07/11 03:40:43;;;;;;;1.60;1.50;;;;;;;26.62;34.54;97649.81;4967240;28;20774;-28
2023/07/11 03:43:10;;;;;;;1.43;1.33;;;;;;;26.59;34.66;97657.53;4964332;28;20204;-29
2023/07/11 03:45:40;;;;;;;1.30;1.20;;;;;;;26.56;34.81;97658.34;4952003;28;20671;-29
2023/07/11 03:48:06;;;;;;;1.50;1.40;;;;;;;26.52;35.06;97650.53;4956376;29;20253;-28
2023/07/11 03:50:33;;;;;;;1.92;1.40;;;;;;;26.49;35.19;97650.50;4957902;28;20216;-28
2023/07/11 03:52:59;;;;;;;1.90;1.40;;;;;;;26.46;35.43;97651.34;4955678;28;20259;-28
2023/07/11 03:55:26;;;;;;;1.20;1.20;;;;;;;26.38;35.54;97642.66;4955272;28;20674;-28
2023/07/11 03:57:52;;;;;;;1.80;1.58;;;;;;;26.42;38.25;97654.75;4958046;28;20223;-28
2023/07/11 04:00:19;;;;;;;1.70;1.60;;;;;;;26.40;37.76;97645.25;4957432;28;20228;-29
2023/07/11 04:02:46;;;;;;;1.70;1.60;;;;;;;26.39;37.53;97648.69;4953563;28;20632;-28
2023/07/11 04:05:12;;;;;;;1.90;1.50;;;;;;;26.36;37.42;97651.22;4955866;28;20207;-29
2023/07/11 04:07:39;;;;;;;1.70;1.60;;;;;;;26.34;37.58;97646.06;4955465;28;20216;-28
2023/07/11 04:10:07;;;;;;;1.70;1.60;;;;;;;26.32;37.64;97647.72;4939687;28;20319;-29
2023/07/11 04:12:34;;;;;;;1.53;1.43;;;;;;;26.30;37.50;97649.44;4948663;28;20200;-28
2023/07/11 04:15:01;;;;;;;1.73;1.63;;;;;;;26.29;37.57;97652.00;4949349;28;20216;-29
2023/07/11 04:17:27;;;;;;;1.70;1.60;;;;;;;26.26;37.36;97646.81;4932136;28;20208;-28
2023/07/11 04:19:54;;;;;;;1.70;1.60;;;;;;;26.24;37.27;97648.50;4948143;28;20247;-29
2023/07/11 04:22:20;;;;;;;1.83;1.73;;;;;;;26.21;37.29;97636.44;4946776;28;20216;-28
2023/07/11 04:24:47;;;;;;;1.55;1.45;;;;;;;26.19;37.53;97638.13;4946986;28;20267;-28
2023/07/11 04:27:14;;;;;;;1.60;1.50;;;;;;;26.19;37.42;97639.84;4944938;28;20762;-34
2023/07/11 04:29:41;;;;;;;1.70;1.60;;;;;;;26.17;37.67;97644.13;4930279;28;20330;-28
2023/07/11 04:32:09;;;;;;;1.50;1.40;;;;;;;26.11;38.07;97637.16;4944671;28;20291;-29
2023/07/11 04:34:36;;;;;;;1.70;1.60;;;;;;;26.12;38.04;97641.50;4946631;28;20236;-30
2023/07/11 04:37:02;;;;;;;1.70;1.60;;;;;;;26.11;38.01;97644.88;4946861;28;20230;-31
2023/07/11 04:39:29;;;;;;;1.98;1.70;;;;;;;26.09;38.20;97646.59;4945579;28;20271;-31
2023/07/11 04:41:55;;;;;;;1.60;1.50;;;;;;;26.09;38.20;97645.72;4947039;28;20323;-28
2023/07/11 04:44:22;;;;;;;1.63;1.53;;;;;;;26.07;38.32;97642.25;4948573;28;20390;-28
2023/07/11 04:46:49;;;;;;;1.60;1.50;;;;;;;26.05;38.26;97652.53;4947528;28;20620;-31
2023/07/11 04:49:15;;;;;;;1.50;1.40;;;;;;;26.06;38.60;97650.84;4947468;28;20641;-35
2023/07/11 04:51:42;;;;;;;1.70;1.60;;;;;;;26.05;38.51;97656.84;4949199;28;20663;-28
2023/07/11 04:54:09;;;;;;;1.67;1.57;;;;;;;26.03;38.30;97661.97;4948440;28;20675;-28
2023/07/11 04:56:38;;;;;;;1.50;1.40;;;;;;;26.03;38.51;97654.25;4945978;28;20216;-36
2023/07/11 04:59:04;;;;;;;1.70;1.60;;;;;;;26.00;38.78;97654.19;4947350;28;20224;-28
2023/07/11 05:01:31;;;;;;;1.70;1.60;;;;;;;26.01;38.51;97653.34;4946097;28;20283;-29
2023/07/11 05:03:58;;;;;;;1.50;1.40;;;;;;;25.99;38.83;97657.59;4948088;28;20209;-28
2023/07/11 05:06:25;;;;;;;1.53;1.43;;;;;;;25.99;38.84;97644.72;4960228;28;20291;-31
2023/07/11 05:08:51;;;;;;;1.60;1.50;;;;;;;25.98;39.02;97639.50;4951157;28;20675;-29
2023/07/11 05:11:19;;;;;;;1.60;1.50;;;;;;;25.97;38.79;97650.69;4954853;28;20197;-30
2023/07/11 05:13:47;;;;;;;1.55;1.45;;;;;;;25.96;38.90;97648.94;4955641;28;20263;-28
2023/07/11 05:16:18;;;;;;;1.52;1.42;;;;;;;25.95;38.95;97650.66;4944316;28;20207;-29
2023/07/11 05:18:46;;;;;;;1.60;1.50;;;;;;;25.94;39.44;97648.06;4952255;28;20228;-28
2023/07/11 05:21:14;;;;;;;4.33;1.70;;;;;;;25.93;39.28;97651.50;4952650;28;20205;-29
2023/07/11 05:23:41;;;;;;;1.57;1.47;;;;;;;25.92;39.53;97640.31;4956104;28;20283;-28
2023/07/11 05:26:08;;;;;;;1.95;1.85;;;;;;;25.94;39.44;97640.34;4962839;28;20210;-28
2023/07/11 05:28:35;;;;;;;1.70;1.60;;;;;;;25.91;39.63;97637.72;4937064;28;20218;-28
2023/07/11 05:31:03;;;;;;;1.50;1.40;;;;;;;25.90;39.58;97639.41;4954432;28;20224;-28
2023/07/11 05:33:29;;;;;;;1.70;1.60;;;;;;;25.89;39.81;97642.84;4954246;28;20204;-28
2023/07/11 05:36:15;;;;;;;1.67;1.57;;;;;;;25.88;39.34;97635.97;4961519;28;20197;-29
2023/07/11 05:38:42;;;;;;;1.60;1.50;;;;;;;25.88;39.40;97635.97;4941613;28;20228;-32
2023/07/11 05:41:08;;;;;;;1.67;1.57;;;;;;;25.89;39.69;97636.81;4960807;28;20228;-29
2023/07/11 05:43:35;;;;;;;1.60;1.50;;;;;;;25.87;39.92;97641.94;4954586;28;20203;-28
2023/07/11 05:46:01;;;;;;;1.57;1.47;;;;;;;25.87;40.09;97639.38;4953699;28;20200;-28
2023/07/11 05:48:28;;;;;;;1.80;1.70;;;;;;;25.86;40.01;97641.91;4956440;28;20200;-29
2023/07/11 05:50:58;;;;;;;1.53;1.43;;;;;;;25.87;39.95;97638.53;4959474;28;20349;-28
2023/07/11 05:53:25;;;;;;;1.60;1.50;;;;;;;25.83;40.04;97629.00;4950376;28;20204;-28
2023/07/11 05:55:55;;;;;;;1.93;1.70;;;;;;;25.86;40.01;97636.78;4958044;28;20735;-28
2023/07/11 05:58:21;;;;;;;1.73;1.63;;;;;;;25.80;40.22;97624.69;4960854;28;20626;-28
2023/07/11 06:00:51;;;;;;;1.40;1.30;;;;;;;25.84;39.96;97629.03;4957823;28;20773;-28
2023/07/11 06:03:19;;;;;;;1.80;1.70;;;;;;;25.84;40.19;97633.34;4960346;28;20212;-28
2023/07/11 06:05:46;;;;;;;1.60;1.50;;;;;;;25.83;40.19;97632.47;4956996;28;20203;-29
2023/07/11 06:08:12;;;;;;;1.70;1.60;;;;;;;25.81;40.31;97636.72;4959394;28;20287;-28
2023/07/11 06:10:39;;;;;;;1.50;1.40;;;;;;;25.81;40.21;97631.56;4955886;28;20286;-28
2023/07/11 06:13:06;;;;;;;1.50;1.40;;;;;;;25.81;40.27;97628.97;4958491;28;20669;-28
2023/07/11 06:15:32;;;;;;;1.60;1.50;;;;;;;25.81;40.15;97635.88;4960289;28;20231;-28
2023/07/11 06:17:59;;;;;;;1.57;1.47;;;;;;;25.81;40.36;97633.28;4953787;28;20671;-28
2023/07/11 06:20:26;;;;;;;1.60;1.50;;;;;;;25.80;40.54;97627.25;4959032;28;20316;-38
2023/07/11 06:22:53;;;;;;;1.67;1.57;;;;;;;25.80;40.49;97621.25;4953357;29;20745;-29
2023/07/11 06:25:20;;;;;;;1.50;1.40;;;;;;;25.80;40.48;97621.25;4958920;28;20235;-35
2023/07/11 06:27:47;;;;;;;1.70;1.60;;;;;;;25.78;40.57;97617.81;4963221;28;20299;-28
2023/07/11 06:30:14;;;;;;;1.50;1.40;;;;;;;25.78;40.59;97618.66;4954149;28;20224;-30
2023/07/11 06:32:40;;;;;;;1.83;1.60;;;;;;;25.78;40.53;97613.50;4953766;29;20212;-28
2023/07/11 06:35:07;;;;;;;1.65;1.55;;;;;;;25.77;40.46;97616.91;4953870;28;20464;-28
2023/07/11 06:37:34;;;;;;;1.50;1.40;;;;;;;25.77;40.41;97608.31;4953584;28;20209;-28
2023/07/11 06:40:01;;;;;;;1.33;1.23;;;;;;;25.77;40.91;97610.91;4953383;28;20255;-28
2023/07/11 06:42:27;;;;;;;1.73;1.63;;;;;;;25.76;40.73;97610.06;4960124;28;20263;-29
2023/07/11 06:44:54;;;;;;;1.57;1.47;;;;;;;25.77;41.01;97610.91;4955257;28;20235;-29
2023/07/11 06:47:20;;;;;;;1.60;1.50;;;;;;;25.75;40.80;97610.88;4953405;28;20211;-28
2023/07/11 06:49:47;;;;;;;1.73;1.60;;;;;;;25.76;41.01;97612.63;4952489;28;20216;-28
2023/07/11 06:52:14;;;;;;;1.50;1.40;;;;;;;25.76;40.84;97612.63;4953596;28;20243;-28
2023/07/11 06:54:41;;;;;;;1.63;1.53;;;;;;;25.76;40.62;97622.06;4950709;29;20219;-28
2023/07/11 06:57:07;;;;;;;1.50;1.40;;;;;;;25.73;40.99;97617.75;4955939;28;20235;-28
2023/07/11 06:59:34;;;;;;;1.50;1.40;;;;;;;25.75;40.85;97617.75;4953207;29;20228;-28
2023/07/11 07:02:00;;;;;;;1.50;1.40;;;;;;;25.74;40.79;97622.03;4955849;28;20555;-28
2023/07/11 07:04:27;;;;;;;1.70;1.60;;;;;;;25.74;40.92;97616.88;4954170;28;20227;-28
2023/07/11 07:06:53;;;;;;;1.57;1.47;;;;;;;25.74;41.20;97624.59;4956451;28;20211;-28
2023/07/11 07:09:20;;;;;;;1.60;1.50;;;;;;;25.74;41.06;97621.16;4954866;28;20220;-28
2023/07/11 07:11:47;;;;;;;1.70;1.60;;;;;;;25.74;41.29;97618.59;4942512;29;20212;-29
2023/07/11 07:14:13;;;;;;;1.57;1.47;;;;;;;25.73;41.06;97615.16;4962625;28;20200;-28
2023/07/11 07:16:40;;;;;;;2.00;1.50;;;;;;;25.73;41.19;97614.28;4957081;29;20211;-28
2023/07/11 07:19:07;;;;;;;1.70;1.60;;;;;;;25.73;40.93;97610.00;4959607;28;20615;-28
2023/07/11 07:21:34;;;;;;;1.50;1.40;;;;;;;25.73;41.20;97612.59;4939975;29;20279;-29
2023/07/11 07:24:01;;;;;;;1.50;1.40;;;;;;;25.73;41.24;97609.13;4961289;28;20674;-28
2023/07/11 07:26:27;;;;;;;1.50;1.40;;;;;;;25.72;40.86;97604.84;4957873;28;20643;-28
2023/07/11 07:28:54;;;;;;;1.63;1.53;;;;;;;25.72;41.41;97608.25;4958755;28;20282;-28
2023/07/11 07:31:22;;;;;;;1.80;1.70;;;;;;;25.72;42.57;97610.84;4957073;28;20196;-29
2023/07/11 07:33:49;;;;;;;1.80;1.70;;;;;;;25.73;42.72;97606.56;4959182;28;20200;-28
2023/07/11 07:36:15;;;;;;;1.90;1.77;;;;;;;25.72;42.33;97602.28;4951742;28;20231;-28
2023/07/11 07:38:42;;;;;;;1.63;1.53;;;;;;;25.72;42.12;97610.84;4963079;28;20223;-28
2023/07/11 07:41:09;;;;;;;1.75;1.65;;;;;;;25.72;41.93;97607.41;4956709;28;20212;-28
2023/07/11 07:43:39;;;;;;;1.80;1.70;;;;;;;25.72;41.95;97607.41;4960902;28;20291;-29
2023/07/11 07:46:06;;;;;;;1.60;1.50;;;;;;;25.72;41.94;97607.41;4963479;28;20236;-28
2023/07/11 07:48:33;;;;;;;1.70;1.60;;;;;;;25.72;41.95;97607.41;4959246;28;20204;-29
2023/07/11 07:51:03;;;;;;;1.67;1.57;;;;;;;25.72;41.96;97599.69;4948765;28;20734;-28
2023/07/11 07:53:31;;;;;;;1.60;1.50;;;;;;;25.72;41.88;97602.28;4958570;28;20714;-29
2023/07/11 07:56:02;;;;;;;1.70;1.50;;;;;;;25.72;41.97;97605.69;4956662;28;20274;-28
2023/07/11 07:58:30;;;;;;;1.67;1.57;;;;;;;25.72;41.85;97597.97;4958037;28;20578;-32
2023/07/11 08:01:03;;;;;;;1.73;1.63;;;;;;;25.71;41.93;97592.78;4960528;28;20275;-28
2023/07/11 08:03:36;;;;;;;1.57;1.47;;;;;;;25.71;41.66;97588.53;4962917;28;20574;-28
2023/07/11 08:06:02;;;;;;;1.70;1.60;;;;;;;25.73;42.13;97588.53;4948727;29;20211;-28
2023/07/11 08:08:32;;;;;;;1.60;1.50;;;;;;;25.73;41.75;97591.13;4962053;28;20205;-28
2023/07/11 08:11:02;;;;;;;1.63;1.53;;;;;;;25.74;42.22;97597.97;4958932;28;20232;-28
2023/07/11 08:13:29;;;;;;;1.67;1.57;;;;;;;25.74;41.84;97587.69;4961601;28;20710;-29
2023/07/11 08:16:07;;;;;;;1.57;1.47;;;;;;;25.73;41.86;97594.56;4951189;28;20251;-28
2023/07/11 08:18:53;;;;;;;1.70;1.43;;;;;;;25.73;41.92;97591.13;4961514;28;20228;-28
2023/07/11 08:21:20;;;;;;;2.13;1.70;;;;;;;25.72;42.08;97579.94;4961362;28;20228;-29
2023/07/11 08:23:46;;;;;;;1.60;1.50;;;;;;;25.74;42.01;97587.69;4959344;28;20710;-29
2023/07/11 08:26:13;;;;;;;1.70;1.60;;;;;;;25.71;42.00;97578.22;4962370;28;20586;-28
2023/07/11 08:28:41;;;;;;;1.70;1.60;;;;;;;25.73;41.78;97575.66;4959958;28;20248;-28
2023/07/11 08:31:08;;;;;;;1.60;1.50;;;;;;;25.73;41.73;97579.13;4955972;23;1112775;-27
2023/07/11 08:33:35;;;;;;;1.70;1.60;;;;;;;25.73;41.77;97571.41;4985120;28;20587;-27
2023/07/11 08:36:02;;;;;;;1.60;1.50;;;;;;;25.73;41.93;97562.78;4983139;28;20204;-27
2023/07/11 08:38:29;;;;;;;1.60;1.50;;;;;;;25.72;41.79;97572.22;4985111;28;20207;-27
2023/07/11 08:40:55;;;;;;;1.50;1.40;;;;;;;25.72;41.75;97571.38;4984396;28;20227;-27
2023/07/11 08:43:27;;;;;;;1.40;1.30;;;;;;;25.71;42.01;97567.94;4988227;28;20257;-27
2023/07/11 08:46:07;;;;;;;1.77;1.67;;;;;;;25.70;41.94;97561.06;4992994;28;20265;-27
2023/07/11 08:48:47;;;;;;;1.70;1.60;;;;;;;25.69;41.87;97555.88;4989536;28;20298;-29
2023/07/11 08:51:24;;;;;;;1.60;1.50;;;;;;;25.66;42.05;97563.53;4982405;28;20255;-30
2023/07/11 08:54:24;;;;;;;1.40;1.30;;;;;;;25.69;42.04;97572.19;4987206;28;20226;-27
2023/07/11 08:56:51;;;;;;;1.60;1.50;;;;;;;25.61;42.07;97550.59;4940916;28;20207;-27
2023/07/11 08:59:46;;;;;;;1.40;1.30;;;;;;;25.66;41.85;97554.13;4992762;28;20210;-27
2023/07/11 09:02:24;;;;;;;1.47;1.37;;;;;;;25.66;42.24;97554.13;4991863;28;20210;-28
2023/07/11 09:04:52;;;;;;;1.60;1.50;;;;;;;25.65;42.01;97554.97;4963032;28;20248;-27
2023/07/11 09:07:37;;;;;;;1.43;1.37;;;;;;;25.65;42.36;97551.53;4985842;28;20214;-28
2023/07/11 09:10:35;;;;;;;1.60;1.50;;;;;;;25.64;42.47;97545.50;4991770;28;20305;-27
2023/07/11 09:13:36;;;;;;;1.63;1.53;;;;;;;25.64;42.55;97535.19;4986068;28;20257;-27
2023/07/11 09:16:41;;;;;;;1.53;1.43;;;;;;;25.64;42.56;97534.34;4989020;28;20585;-27
2023/07/11 09:19:46;;;;;;;1.57;1.47;;;;;;;25.63;42.71;97520.63;4991382;28;20562;-27
2023/07/11 09:22:36;;;;;;;1.60;1.50;;;;;;;25.64;42.78;97513.78;4979428;28;20237;-27
2023/07/11 09:25:09;;;;;;;1.60;1.50;;;;;;;25.64;42.71;97517.19;4979721;28;20207;-27
2023/07/11 09:27:38;;;;;;;1.60;1.50;;;;;;;25.65;42.40;97516.34;4949782;28;20231;-27
2023/07/11 09:30:16;;;;;;;1.77;1.40;;;;;;;25.60;42.60;97501.69;4982693;28;20238;-27
2023/07/11 09:32:43;;;;;;;1.60;1.50;;;;;;;25.66;42.72;97510.34;4984238;28;20674;-27
2023/07/11 09:35:28;;;;;;;1.60;1.50;;;;;;;25.67;42.62;97503.50;4992972;28;20211;-27
2023/07/11 09:38:00;;;;;;;1.70;1.60;;;;;;;25.62;42.35;97500.00;4983902;28;20210;-27
2023/07/11 09:40:34;;;;;;;1.50;1.40;;;;;;;25.68;42.69;97505.22;4981070;28;20668;-27
2023/07/11 09:43:00;;;;;;;1.43;1.33;;;;;;;25.66;42.58;97494.91;4980510;28;20206;-27
2023/07/11 09:45:35;;;;;;;1.40;1.30;;;;;;;25.68;42.78;97500.97;4985513;28;20211;-27
2023/07/11 09:48:20;;;;;;;1.60;1.50;;;;;;;25.69;42.86;97506.97;4991645;28;20228;-40
2023/07/11 09:50:59;;;;;;;1.80;1.70;;;;;;;25.69;42.74;97491.53;4981963;28;20281;-27
2023/07/11 09:53:30;;;;;;;1.63;1.53;;;;;;;25.68;42.92;97494.94;4991746;28;20215;-27
2023/07/11 09:56:01;;;;;;;1.50;1.40;;;;;;;25.68;42.87;97490.66;4992670;28;20203;-27
2023/07/11 09:58:39;;;;;;;1.60;1.50;;;;;;;25.69;42.76;97486.38;4992435;28;20211;-27
2023/07/11 10:01:18;;;;;;;1.80;1.70;;;;;;;25.69;42.82;97484.66;4991294;28;20258;-27
2023/07/11 10:03:47;;;;;;;1.43;1.33;;;;;;;25.70;42.72;97480.38;4992445;28;20253;-29
2023/07/11 10:06:38;;;;;;;1.50;1.40;;;;;;;25.70;42.76;97470.09;4992432;28;20234;-27
2023/07/11 10:09:19;;;;;;;1.60;1.50;;;;;;;25.70;42.72;97472.66;4988281;28;20203;-27
2023/07/11 10:11:57;;;;;;;1.60;1.50;;;;;;;25.70;42.89;97475.22;4988045;28;20278;-27
2023/07/11 10:14:32;;;;;;;1.50;1.40;;;;;;;25.71;43.20;97469.22;4979336;28;20199;-27
2023/07/11 10:16:58;;;;;;;1.30;1.20;;;;;;;25.70;43.09;97465.81;4992369;28;20202;-27
2023/07/11 10:19:26;;;;;;;1.40;1.30;;;;;;;25.70;43.09;97468.38;4985879;28;20200;-27
2023/07/11 10:21:53;;;;;;;1.50;1.40;;;;;;;25.69;43.12;97464.06;4988612;28;20223;-27
2023/07/11 10:24:24;;;;;;;1.40;1.30;;;;;;;25.70;43.00;97465.81;4973283;28;20249;-27
2023/07/11 10:27:02;;;;;;;1.50;1.40;;;;;;;25.70;43.30;97452.94;4989463;28;20203;-27
2023/07/11 10:29:33;;;;;;;1.30;1.20;;;;;;;25.69;43.07;97446.03;4974574;28;20229;-27
2023/07/11 10:32:02;;;;;;;1.30;1.20;;;;;;;25.63;43.02;97430.53;4967079;28;20241;-27
2023/07/11 10:34:49;;;;;;;1.10;1.10;;;;;;;25.69;43.25;97427.19;4986067;28;20230;-27
2023/07/11 10:37:30;;;;;;;1.60;1.50;;;;;;;25.70;42.97;97431.47;4993379;28;20643;-27
2023/07/11 10:40:09;;;;;;;1.20;1.10;;;;;;;25.64;43.25;97418.53;4975547;28;20214;-27
2023/07/11 10:43:13;;;;;;;1.40;1.30;;;;;;;25.70;43.10;97421.16;4975385;28;20263;-27
2023/07/11 10:45:42;;;;;;;1.40;1.30;;;;;;;25.70;43.49;97416.03;4978143;28;20267;-27
2023/07/11 10:48:32;;;;;;;1.47;1.37;;;;;;;25.71;43.35;97420.31;4991507;28;20246;-27
2023/07/11 10:51:01;;;;;;;1.50;1.40;;;;;;;25.70;43.36;97408.31;4991777;28;20269;-27
2023/07/11 10:53:28;;;;;;;1.40;1.30;;;;;;;25.70;43.25;97403.16;4983914;28;20203;-27
2023/07/11 10:56:14;;;;;;;1.97;1.40;;;;;;;25.69;43.20;97401.44;4991880;28;20202;-28
2023/07/11 10:58:40;;;;;;;1.23;1.23;;;;;;;25.70;43.17;97406.59;4962112;28;20545;-27
2023/07/11 11:01:26;;;;;;;1.50;1.40;;;;;;;25.71;43.15;97412.59;4990069;28;20325;-27
2023/07/11 11:03:57;;;;;;;1.60;1.50;;;;;;;25.71;43.32;97408.31;4982836;28;20699;-27
2023/07/11 11:06:43;;;;;;;1.50;1.40;;;;;;;25.71;43.13;97395.44;4971836;28;20250;-27
2023/07/11 11:09:15;;;;;;;1.20;1.20;;;;;;;25.70;43.09;97382.56;4979963;28;20297;-27
2023/07/11 11:11:47;;;;;;;1.50;1.40;;;;;;;25.71;43.38;97385.16;4979628;28;20227;-27
2023/07/11 11:14:16;;;;;;;1.40;1.30;;;;;;;25.70;43.18;97385.13;4990842;28;20202;-33
2023/07/11 11:17:20;;;;;;;2.33;2.13;;;;;;;25.72;45.52;97391.16;4990426;28;20257;-27
2023/07/11 11:19:59;;;;;;;1.93;1.80;;;;;;;25.72;44.98;97383.44;4976901;28;20269;-27
2023/07/11 11:22:31;;;;;;;1.90;1.80;;;;;;;25.71;44.98;97367.13;4986126;28;20257;-27
2023/07/11 11:25:00;;;;;;;1.87;1.77;;;;;;;25.72;44.79;97368.84;4976099;28;20262;-27
2023/07/11 11:27:41;;;;;;;1.83;1.70;;;;;;;25.71;44.64;97359.41;4979646;28;20199;-27
2023/07/11 11:30:48;;;;;;;1.60;1.50;;;;;;;25.70;44.36;97357.69;4972626;28;20231;-26
2023/07/11 11:33:46;;;;;;;1.70;1.60;;;;;;;25.71;44.34;97361.09;4961865;28;20678;-27
2023/07/11 11:36:15;;;;;;;2.13;1.97;;;;;;;25.70;44.49;97347.41;4998969;28;20195;-27
2023/07/11 11:38:53;;;;;;;1.58;1.42;;;;;;;25.71;44.46;97355.97;4986004;28;20216;-27
2023/07/11 11:41:28;;;;;;;1.63;1.53;;;;;;;25.70;44.48;97347.41;4982286;28;20314;-27
2023/07/11 11:43:55;;;;;;;1.70;1.60;;;;;;;25.70;44.46;97337.09;4964559;28;20364;-27
2023/07/11 11:46:24;;;;;;;1.70;1.60;;;;;;;25.70;44.09;97347.41;4980198;28;20291;-27